createdAt,value
2019-02-17T00:00:13.667Z,1018.60
2019-02-17T00:01:13.654Z,1018.62
2019-02-17T00:02:13.648Z,1018.64
2019-02-17T00:03:13.632Z,1018.65
2019-02-17T00:04:13.647Z,1018.68
2019-02-17T00:05:13.612Z,1018.71
2019-02-17T00:06:13.607Z,1018.67
2019-02-17T00:07:13.589Z,1018.71
2019-02-17T00:08:13.590Z,1018.67
2019-02-17T00:09:13.585Z,1018.71
2019-02-17T00:10:13.551Z,1018.67
2019-02-17T00:11:13.543Z,1018.71
2019-02-17T00:12:13.531Z,1018.68
2019-02-17T00:13:13.522Z,1018.63
2019-02-17T00:14:13.542Z,1018.64
2019-02-17T00:15:13.498Z,1018.57
2019-02-17T00:16:13.489Z,1018.61
2019-02-17T00:17:13.477Z,1018.62
2019-02-17T00:18:13.464Z,1018.55
2019-02-17T00:19:13.450Z,1018.58
2019-02-17T00:20:13.476Z,1018.53
2019-02-17T00:21:13.429Z,1018.60
2019-02-17T00:22:13.414Z,1018.61
2019-02-17T00:23:13.406Z,1018.60
2019-02-17T00:24:13.399Z,1018.57
2019-02-17T00:25:13.411Z,1018.56
2019-02-17T00:26:13.381Z,1018.55
2019-02-17T00:27:13.365Z,1018.57
2019-02-17T00:28:13.357Z,1018.56
2019-02-17T00:29:13.344Z,1018.55
2019-02-17T00:30:13.355Z,1018.53
2019-02-17T00:31:13.314Z,1018.57
2019-02-17T00:32:13.307Z,1018.56
2019-02-17T00:33:13.293Z,1018.56
2019-02-17T00:34:13.854Z,1018.57
2019-02-17T00:35:13.303Z,1018.57
2019-02-17T00:36:13.277Z,1018.54
2019-02-17T00:37:13.249Z,1018.55
2019-02-17T00:38:13.244Z,1018.55
2019-02-17T00:39:13.236Z,1018.53
2019-02-17T00:40:13.212Z,1018.55
2019-02-17T00:41:13.222Z,1018.47
2019-02-17T00:42:13.205Z,1018.48
2019-02-17T00:43:13.181Z,1018.48
2019-02-17T00:44:13.171Z,1018.51
2019-02-17T00:45:13.159Z,1018.55
2019-02-17T00:46:13.160Z,1018.55
2019-02-17T00:47:13.163Z,1018.59
2019-02-17T00:48:13.125Z,1018.61
2019-02-17T00:49:13.114Z,1018.54
2019-02-17T00:50:13.153Z,1018.54
2019-02-17T00:51:13.123Z,1018.53
2019-02-17T00:52:13.079Z,1018.54
2019-02-17T00:53:13.068Z,1018.56
2019-02-17T00:54:13.130Z,1018.59
2019-02-17T00:55:13.046Z,1018.60
2019-02-17T00:56:13.052Z,1018.58
2019-02-17T00:57:13.028Z,1018.59
2019-02-17T00:58:13.011Z,1018.56
2019-02-17T00:59:13.000Z,1018.56
2019-02-17T01:00:12.989Z,1018.54
2019-02-17T01:01:13.008Z,1018.57
2019-02-17T01:02:12.972Z,1018.61
2019-02-17T01:03:12.956Z,1018.59
2019-02-17T01:04:12.948Z,1018.63
2019-02-17T01:05:12.937Z,1018.60
2019-02-17T01:06:12.954Z,1018.58
2019-02-17T01:07:12.915Z,1018.61
2019-02-17T01:08:12.902Z,1018.62
2019-02-17T01:09:12.891Z,1018.62
2019-02-17T01:10:12.883Z,1018.63
2019-02-17T01:11:12.880Z,1018.62
2019-02-17T01:12:12.876Z,1018.63
2019-02-17T01:13:12.845Z,1018.60
2019-02-17T01:14:12.838Z,1018.55
2019-02-17T01:15:12.823Z,1018.56
2019-02-17T01:16:12.808Z,1018.59
2019-02-17T01:17:12.816Z,1018.56
2019-02-17T01:18:12.787Z,1018.55
2019-02-17T01:19:12.777Z,1018.60
2019-02-17T01:20:12.766Z,1018.60
2019-02-17T01:21:12.759Z,1018.62
2019-02-17T01:22:12.778Z,1018.62
2019-02-17T01:23:12.736Z,1018.59
2019-02-17T01:24:12.722Z,1018.61
2019-02-17T01:25:12.705Z,1018.63
2019-02-17T01:26:12.698Z,1018.76
2019-02-17T01:27:12.689Z,1018.76
2019-02-17T01:28:12.701Z,1018.73
2019-02-17T01:29:20.051Z,1018.71
2019-02-17T01:30:13.655Z,1018.75
2019-02-17T01:31:12.641Z,1018.78
2019-02-17T01:32:12.647Z,1018.79
2019-02-17T01:33:12.639Z,1018.76
2019-02-17T01:34:12.619Z,1018.77
2019-02-17T01:35:12.605Z,1018.73
2019-02-17T01:36:12.588Z,1018.79
2019-02-17T01:37:12.576Z,1018.78
2019-02-17T01:38:12.610Z,1018.81
2019-02-17T01:39:12.555Z,1018.76
2019-02-17T01:40:12.539Z,1018.79
2019-02-17T01:41:12.535Z,1018.74
2019-02-17T01:42:12.518Z,1018.79
2019-02-17T01:43:12.535Z,1018.76
2019-02-17T01:44:12.498Z,1018.71
2019-02-17T01:45:12.505Z,1018.76
2019-02-17T01:46:12.478Z,1018.75
2019-02-17T01:47:12.461Z,1018.75
2019-02-17T01:48:12.473Z,1018.74
2019-02-17T01:49:12.449Z,1018.81
2019-02-17T01:50:12.429Z,1018.79
2019-02-17T01:51:12.614Z,1018.73
2019-02-17T01:52:12.408Z,1018.77
2019-02-17T01:53:12.443Z,1018.80
2019-02-17T01:54:12.384Z,1018.80
2019-02-17T01:55:12.376Z,1018.79
2019-02-17T01:56:12.366Z,1018.76
2019-02-17T01:57:12.357Z,1018.76
2019-02-17T01:58:12.372Z,1018.75
2019-02-17T01:59:12.330Z,1018.73
2019-02-17T02:00:12.320Z,1018.71
2019-02-17T02:01:12.310Z,1018.71
2019-02-17T02:02:12.294Z,1018.73
2019-02-17T02:03:12.300Z,1018.72
2019-02-17T02:04:12.292Z,1018.72
2019-02-17T02:05:12.264Z,1018.72
2019-02-17T02:06:12.250Z,1018.68
2019-02-17T02:07:12.242Z,1018.74
2019-02-17T02:08:12.228Z,1018.69
2019-02-17T02:09:12.227Z,1018.71
2019-02-17T02:10:12.207Z,1018.66
2019-02-17T02:11:12.204Z,1018.73
2019-02-17T02:12:12.185Z,1018.70
2019-02-17T02:13:12.181Z,1018.68
2019-02-17T02:14:12.177Z,1018.70
2019-02-17T02:15:12.152Z,1018.69
2019-02-17T02:16:12.138Z,1018.68
2019-02-17T02:17:12.124Z,1018.70
2019-02-17T02:18:12.114Z,1018.65
2019-02-17T02:19:12.148Z,1018.62
2019-02-17T02:20:12.091Z,1018.64
2019-02-17T02:21:12.204Z,1018.62
2019-02-17T02:22:12.071Z,1018.63
2019-02-17T02:23:12.067Z,1018.60
2019-02-17T02:24:12.049Z,1018.60
2019-02-17T02:25:12.061Z,1018.63
2019-02-17T02:26:12.031Z,1018.64
2019-02-17T02:27:12.015Z,1018.62
2019-02-17T02:28:12.017Z,1018.67
2019-02-17T02:29:11.991Z,1018.66
2019-02-17T02:30:12.002Z,1018.64
2019-02-17T02:31:11.973Z,1018.63
2019-02-17T02:32:11.954Z,1018.63
2019-02-17T02:33:11.951Z,1018.61
2019-02-17T02:34:11.935Z,1018.67
2019-02-17T02:35:11.940Z,1018.64
2019-02-17T02:36:11.909Z,1018.64
2019-02-17T02:37:11.901Z,1018.65
2019-02-17T02:38:13.574Z,1018.68
2019-02-17T02:39:11.876Z,1018.66
2019-02-17T02:40:11.969Z,1018.67
2019-02-17T02:41:11.862Z,1018.70
2019-02-17T02:42:11.855Z,1018.69
2019-02-17T02:43:11.830Z,1018.70
2019-02-17T02:44:11.821Z,1018.69
2019-02-17T02:45:11.841Z,1018.68
2019-02-17T02:46:11.797Z,1018.65
2019-02-17T02:47:11.787Z,1018.70
2019-02-17T02:48:11.783Z,1018.70
2019-02-17T02:49:11.767Z,1018.74
2019-02-17T02:50:11.774Z,1018.76
2019-02-17T02:51:11.744Z,1018.76
2019-02-17T02:52:11.739Z,1018.76
2019-02-17T02:53:11.717Z,1018.75
2019-02-17T02:54:11.708Z,1018.71
2019-02-17T02:55:11.717Z,1018.75
2019-02-17T02:56:11.684Z,1018.77
2019-02-17T02:57:11.676Z,1018.75
2019-02-17T02:58:11.665Z,1018.77
2019-02-17T02:59:11.650Z,1018.77
2019-02-17T03:00:11.658Z,1018.77
2019-02-17T03:01:11.632Z,1018.72
2019-02-17T03:02:11.623Z,1018.73
2019-02-17T03:03:11.621Z,1018.77
2019-02-17T03:04:11.604Z,1018.79
2019-02-17T03:05:11.623Z,1018.78
2019-02-17T03:06:11.574Z,1018.82
2019-02-17T03:07:11.573Z,1018.82
2019-02-17T03:08:11.550Z,1018.86
2019-02-17T03:09:11.541Z,1018.86
2019-02-17T03:10:11.527Z,1018.91
2019-02-17T03:11:11.540Z,1018.90
2019-02-17T03:12:11.510Z,1018.89
2019-02-17T03:13:11.498Z,1018.93
2019-02-17T03:14:11.489Z,1018.96
2019-02-17T03:15:11.479Z,1018.92
2019-02-17T03:16:11.485Z,1018.91
2019-02-17T03:17:11.453Z,1018.92
2019-02-17T03:18:11.443Z,1018.87
2019-02-17T03:19:11.436Z,1018.86
2019-02-17T03:20:11.416Z,1018.88
2019-02-17T03:21:11.428Z,1018.86
2019-02-17T03:22:11.409Z,1018.89
2019-02-17T03:23:11.384Z,1018.90
2019-02-17T03:24:11.375Z,1018.94
2019-02-17T03:25:11.382Z,1018.92
2019-02-17T03:26:11.369Z,1018.96
2019-02-17T03:27:11.359Z,1018.92
2019-02-17T03:28:11.332Z,1018.98
2019-02-17T03:29:11.319Z,1018.94
2019-02-17T03:30:11.326Z,1018.95
2019-02-17T03:31:11.341Z,1018.96
2019-02-17T03:32:11.287Z,1018.97
2019-02-17T03:33:11.273Z,1018.92
2019-02-17T03:34:11.261Z,1018.93
2019-02-17T03:35:11.274Z,1018.91
2019-02-17T03:36:11.265Z,1018.91
2019-02-17T03:37:11.231Z,1018.95
2019-02-17T03:38:11.217Z,1018.94
2019-02-17T03:39:11.208Z,1018.93
2019-02-17T03:40:11.195Z,1018.90
2019-02-17T03:41:11.200Z,1018.98
2019-02-17T03:42:11.188Z,1018.97
2019-02-17T03:43:11.169Z,1018.99
2019-02-17T03:44:11.146Z,1018.96
2019-02-17T03:45:11.141Z,1018.99
2019-02-17T03:46:11.143Z,1018.96
2019-02-17T03:47:11.115Z,1019.01
2019-02-17T03:48:11.113Z,1019.01
2019-02-17T03:49:11.089Z,1019.00
2019-02-17T03:50:11.084Z,1018.98
2019-02-17T03:51:11.092Z,1019.02
2019-02-17T03:52:11.057Z,1019.02
2019-02-17T03:53:11.055Z,1019.02
2019-02-17T03:54:11.029Z,1019.02
2019-02-17T03:55:11.021Z,1018.99
2019-02-17T03:56:11.007Z,1019.03
2019-02-17T03:57:11.018Z,1019.00
2019-02-17T03:58:11.002Z,1018.99
2019-02-17T03:59:10.972Z,1019.02
2019-02-17T04:00:17.001Z,1019.01
2019-02-17T04:01:11.946Z,1018.95
2019-02-17T04:02:11.031Z,1018.97
2019-02-17T04:03:10.943Z,1018.98
2019-02-17T04:04:10.925Z,1018.95
2019-02-17T04:05:10.902Z,1019.01
2019-02-17T04:06:10.890Z,1019.01
2019-02-17T04:07:10.902Z,1018.95
2019-02-17T04:08:10.873Z,1018.98
2019-02-17T04:09:10.868Z,1019.02
2019-02-17T04:10:10.850Z,1019.00
2019-02-17T04:11:10.854Z,1018.99
2019-02-17T04:12:10.847Z,1018.97
2019-02-17T04:13:10.828Z,1018.94
2019-02-17T04:14:10.804Z,1019.00
2019-02-17T04:15:10.792Z,1018.97
2019-02-17T04:16:10.777Z,1018.94
2019-02-17T04:17:10.793Z,1018.98
2019-02-17T04:18:10.756Z,1018.99
2019-02-17T04:19:10.746Z,1018.98
2019-02-17T04:20:10.742Z,1018.98
2019-02-17T04:21:10.720Z,1019.00
2019-02-17T04:22:10.747Z,1018.97
2019-02-17T04:23:10.696Z,1018.98
2019-02-17T04:24:10.689Z,1018.95
2019-02-17T04:25:10.686Z,1018.95
2019-02-17T04:26:10.661Z,1018.97
2019-02-17T04:27:10.655Z,1018.95
2019-02-17T04:28:10.684Z,1018.92
2019-02-17T04:29:10.632Z,1018.96
2019-02-17T04:30:10.619Z,1018.95
2019-02-17T04:31:10.605Z,1018.96
2019-02-17T04:32:10.592Z,1018.95
2019-02-17T04:33:10.600Z,1018.93
2019-02-17T04:34:10.570Z,1018.96
2019-02-17T04:35:10.561Z,1018.97
2019-02-17T04:36:10.553Z,1018.94
2019-02-17T04:37:10.548Z,1018.94
2019-02-17T04:38:10.548Z,1018.94
2019-02-17T04:39:10.516Z,1018.93
2019-02-17T04:40:10.505Z,1018.98
2019-02-17T04:41:10.495Z,1018.96
2019-02-17T04:42:10.483Z,1018.96
2019-02-17T04:43:10.498Z,1018.95
2019-02-17T04:44:10.456Z,1018.95
2019-02-17T04:45:10.444Z,1018.90
2019-02-17T04:46:10.436Z,1018.89
2019-02-17T04:47:10.430Z,1018.89
2019-02-17T04:48:10.434Z,1018.85
2019-02-17T04:49:10.397Z,1018.86
2019-02-17T04:50:10.397Z,1018.86
2019-02-17T04:51:10.381Z,1018.87
2019-02-17T04:52:10.367Z,1018.84
2019-02-17T04:53:10.373Z,1018.83
2019-02-17T04:54:10.341Z,1018.81
2019-02-17T04:55:10.329Z,1018.82
2019-02-17T04:56:10.321Z,1018.81
2019-02-17T04:57:10.314Z,1018.82
2019-02-17T04:58:10.318Z,1018.86
2019-02-17T04:59:10.280Z,1018.84
2019-02-17T05:00:10.273Z,1018.81
2019-02-17T05:01:10.264Z,1018.83
2019-02-17T05:02:10.257Z,1018.82
2019-02-17T05:03:10.270Z,1018.81
2019-02-17T05:04:10.230Z,1018.83
2019-02-17T05:05:10.215Z,1018.81
2019-02-17T05:06:10.203Z,1018.86
2019-02-17T05:07:10.196Z,1018.83
2019-02-17T05:08:10.178Z,1018.80
2019-02-17T05:09:10.189Z,1018.84
2019-02-17T05:10:10.159Z,1018.83
2019-02-17T05:11:10.148Z,1018.78
2019-02-17T05:12:10.143Z,1018.78
2019-02-17T05:13:10.152Z,1018.76
2019-02-17T05:14:10.134Z,1018.73
2019-02-17T05:15:10.123Z,1018.75
2019-02-17T05:16:10.123Z,1018.74
2019-02-17T05:17:10.077Z,1018.82
2019-02-17T05:18:10.071Z,1018.79
2019-02-17T05:19:10.079Z,1018.82
2019-02-17T05:20:10.045Z,1018.85
2019-02-17T05:21:10.040Z,1018.85
2019-02-17T05:22:10.022Z,1018.90
2019-02-17T05:23:10.031Z,1018.88
2019-02-17T05:24:10.021Z,1018.93
2019-02-17T05:25:09.984Z,1018.98
2019-02-17T05:26:09.976Z,1018.90
2019-02-17T05:27:09.963Z,1018.94
2019-02-17T05:28:09.963Z,1018.99
2019-02-17T05:29:09.961Z,1018.94
2019-02-17T05:30:09.941Z,1018.95
2019-02-17T05:31:09.973Z,1018.96
2019-02-17T05:32:09.914Z,1018.94
2019-02-17T05:33:09.894Z,1018.96
2019-02-17T05:34:09.904Z,1019.00
2019-02-17T05:35:09.876Z,1018.92
2019-02-17T05:36:09.866Z,1018.96
2019-02-17T05:37:09.846Z,1018.96
2019-02-17T05:38:09.839Z,1018.97
2019-02-17T05:39:09.848Z,1018.97
2019-02-17T05:40:09.817Z,1018.96
2019-02-17T05:41:09.815Z,1018.99
2019-02-17T05:42:09.795Z,1019.00
2019-02-17T05:43:09.781Z,1018.99
2019-02-17T05:44:09.802Z,1019.01
2019-02-17T05:45:09.769Z,1018.98
2019-02-17T05:46:09.746Z,1018.97
2019-02-17T05:47:09.732Z,1018.96
2019-02-17T05:48:09.722Z,1018.97
2019-02-17T05:49:09.713Z,1018.94
2019-02-17T05:50:09.720Z,1018.95
2019-02-17T05:51:09.685Z,1019.01
2019-02-17T05:52:09.683Z,1019.00
2019-02-17T05:53:09.661Z,1019.02
2019-02-17T05:54:09.653Z,1019.04
2019-02-17T05:55:09.660Z,1019.02
2019-02-17T05:56:09.641Z,1019.07
2019-02-17T05:57:09.620Z,1019.07
2019-02-17T05:58:09.610Z,1019.11
2019-02-17T05:59:09.590Z,1019.06
2019-02-17T06:00:09.598Z,1019.10
2019-02-17T06:01:09.631Z,1019.07
2019-02-17T06:02:09.562Z,1019.08
2019-02-17T06:03:09.543Z,1019.11
2019-02-17T06:04:09.535Z,1019.09
2019-02-17T06:05:09.560Z,1019.04
2019-02-17T06:06:09.513Z,1019.05
2019-02-17T06:07:09.517Z,1019.06
2019-02-17T06:08:09.493Z,1019.05
2019-02-17T06:09:09.483Z,1019.14
2019-02-17T06:10:09.514Z,1019.09
2019-02-17T06:11:09.456Z,1019.12
2019-02-17T06:12:09.451Z,1019.11
2019-02-17T06:13:09.458Z,1019.10
2019-02-17T06:14:09.430Z,1019.14
2019-02-17T06:15:09.422Z,1019.10
2019-02-17T06:16:09.398Z,1019.16
2019-02-17T06:17:09.390Z,1019.14
2019-02-17T06:18:09.448Z,1019.13
2019-02-17T06:19:09.371Z,1019.15
2019-02-17T06:20:09.371Z,1019.20
2019-02-17T06:21:09.343Z,1019.19
2019-02-17T06:22:09.330Z,1019.17
2019-02-17T06:23:09.336Z,1019.24
2019-02-17T06:24:09.317Z,1019.20
2019-02-17T06:25:09.319Z,1019.18
2019-02-17T06:26:09.295Z,1019.22
2019-02-17T06:27:09.270Z,1019.21
2019-02-17T06:28:09.261Z,1019.23
2019-02-17T06:29:09.253Z,1019.26
2019-02-17T06:30:09.261Z,1019.28
2019-02-17T06:31:14.537Z,1019.28
2019-02-17T06:32:10.224Z,1019.26
2019-02-17T06:33:09.209Z,1019.27
2019-02-17T06:34:09.195Z,1019.29
2019-02-17T06:35:09.183Z,1019.33
2019-02-17T06:36:09.209Z,1019.32
2019-02-17T06:37:09.162Z,1019.33
2019-02-17T06:38:09.155Z,1019.34
2019-02-17T06:39:09.142Z,1019.34
2019-02-17T06:40:09.130Z,1019.30
2019-02-17T06:41:09.143Z,1019.32
2019-02-17T06:42:09.103Z,1019.32
2019-02-17T06:43:09.111Z,1019.31
2019-02-17T06:44:09.090Z,1019.36
2019-02-17T06:45:09.065Z,1019.41
2019-02-17T06:46:09.334Z,1019.38
2019-02-17T06:47:09.065Z,1019.38
2019-02-17T06:48:09.032Z,1019.39
2019-02-17T06:49:09.034Z,1019.37
2019-02-17T06:50:09.027Z,1019.33
2019-02-17T06:51:09.029Z,1019.32
2019-02-17T06:52:08.991Z,1019.32
2019-02-17T06:53:08.988Z,1019.35
2019-02-17T06:54:08.974Z,1019.34
2019-02-17T06:55:08.955Z,1019.34
2019-02-17T06:56:09.160Z,1019.31
2019-02-17T06:57:09.006Z,1019.32
2019-02-17T06:58:08.933Z,1019.38
2019-02-17T06:59:08.914Z,1019.35
2019-02-17T07:00:08.896Z,1019.37
2019-02-17T07:01:08.903Z,1019.35
2019-02-17T07:02:08.881Z,1019.31
2019-02-17T07:03:08.875Z,1019.33
2019-02-17T07:04:08.853Z,1019.36
2019-02-17T07:05:08.838Z,1019.35
2019-02-17T07:06:08.866Z,1019.31
2019-02-17T07:07:08.827Z,1019.35
2019-02-17T07:08:08.814Z,1019.36
2019-02-17T07:09:08.803Z,1019.37
2019-02-17T07:10:08.790Z,1019.35
2019-02-17T07:11:08.788Z,1019.42
2019-02-17T07:12:08.775Z,1019.38
2019-02-17T07:13:08.754Z,1019.34
2019-02-17T07:14:08.748Z,1019.37
2019-02-17T07:15:08.731Z,1019.40
2019-02-17T07:16:08.733Z,1019.38
2019-02-17T07:17:08.719Z,1019.37
2019-02-17T07:18:08.699Z,1019.38
2019-02-17T07:19:08.695Z,1019.34
2019-02-17T07:20:09.733Z,1019.38
2019-02-17T07:21:08.661Z,1019.35
2019-02-17T07:22:08.667Z,1019.39
2019-02-17T07:23:08.631Z,1019.40
2019-02-17T07:24:08.630Z,1019.37
2019-02-17T07:25:08.620Z,1019.43
2019-02-17T07:26:08.620Z,1019.42
2019-02-17T07:27:08.630Z,1019.36
2019-02-17T07:28:08.575Z,1019.39
2019-02-17T07:29:08.572Z,1019.38
2019-02-17T07:30:08.558Z,1019.38
2019-02-17T07:31:08.574Z,1019.42
2019-02-17T07:32:08.637Z,1019.40
2019-02-17T07:33:08.519Z,1019.38
2019-02-17T07:34:08.508Z,1019.41
2019-02-17T07:35:08.524Z,1019.41
2019-02-17T07:36:08.516Z,1019.43
2019-02-17T07:37:08.528Z,1019.46
2019-02-17T07:38:08.465Z,1019.43
2019-02-17T07:39:08.455Z,1019.44
2019-02-17T07:40:08.445Z,1019.45
2019-02-17T07:41:08.442Z,1019.43
2019-02-17T07:42:09.682Z,1019.45
2019-02-17T07:43:08.458Z,1019.44
2019-02-17T07:44:08.396Z,1019.46
2019-02-17T07:45:09.000Z,1019.43
2019-02-17T07:46:08.403Z,1019.46
2019-02-17T07:47:08.451Z,1019.51
2019-02-17T07:48:08.422Z,1019.50
2019-02-17T07:49:08.347Z,1019.55
2019-02-17T07:50:08.328Z,1019.55
2019-02-17T07:51:08.354Z,1019.50
2019-02-17T07:52:08.319Z,1019.49
2019-02-17T07:53:08.302Z,1019.51
2019-02-17T07:54:08.287Z,1019.46
2019-02-17T07:55:08.272Z,1019.50
2019-02-17T07:56:08.272Z,1019.45
2019-02-17T07:57:08.270Z,1019.46
2019-02-17T07:58:08.235Z,1019.48
2019-02-17T07:59:08.228Z,1019.52
2019-02-17T08:00:08.217Z,1019.52
2019-02-17T08:01:08.259Z,1019.49
2019-02-17T08:02:08.227Z,1019.49
2019-02-17T08:03:08.197Z,1019.49
2019-02-17T08:04:08.170Z,1019.47
2019-02-17T08:05:08.162Z,1019.48
2019-02-17T08:06:08.145Z,1019.47
2019-02-17T08:07:08.142Z,1019.44
2019-02-17T08:08:08.152Z,1019.50
2019-02-17T08:09:08.138Z,1019.50
2019-02-17T08:10:08.122Z,1019.53
2019-02-17T08:11:08.094Z,1019.52
2019-02-17T08:12:08.081Z,1019.52
2019-02-17T08:13:08.090Z,1019.50
2019-02-17T08:14:08.054Z,1019.50
2019-02-17T08:15:08.092Z,1019.54
2019-02-17T08:16:08.045Z,1019.52
2019-02-17T08:17:08.033Z,1019.56
2019-02-17T08:18:08.050Z,1019.51
2019-02-17T08:19:08.013Z,1019.57
2019-02-17T08:20:07.992Z,1019.54
2019-02-17T08:21:07.980Z,1019.54
2019-02-17T08:22:07.971Z,1019.49
2019-02-17T08:23:07.991Z,1019.51
2019-02-17T08:24:07.962Z,1019.49
2019-02-17T08:25:07.933Z,1019.52
2019-02-17T08:26:07.927Z,1019.51
2019-02-17T08:27:07.909Z,1019.55
2019-02-17T08:28:07.903Z,1019.58
2019-02-17T08:29:07.943Z,1019.61
2019-02-17T08:30:07.886Z,1019.62
2019-02-17T08:31:07.873Z,1019.64
2019-02-17T08:32:07.858Z,1019.68
2019-02-17T08:33:07.878Z,1019.69
2019-02-17T08:34:07.854Z,1019.70
2019-02-17T08:35:07.833Z,1019.68
2019-02-17T08:36:07.811Z,1019.68
2019-02-17T08:37:07.805Z,1019.72
2019-02-17T08:38:07.794Z,1019.72
2019-02-17T08:39:07.796Z,1019.74
2019-02-17T08:40:07.771Z,1019.74
2019-02-17T08:41:07.786Z,1019.72
2019-02-17T08:42:07.768Z,1019.72
2019-02-17T08:43:07.737Z,1019.75
2019-02-17T08:44:07.758Z,1019.69
2019-02-17T08:45:07.756Z,1019.63
2019-02-17T08:46:07.701Z,1019.63
2019-02-17T08:47:07.710Z,1019.62
2019-02-17T08:48:07.703Z,1019.63
2019-02-17T08:49:07.671Z,1019.58
2019-02-17T08:50:07.688Z,1019.53
2019-02-17T08:51:07.659Z,1019.56
2019-02-17T08:52:07.651Z,1019.52
2019-02-17T08:53:07.667Z,1019.56
2019-02-17T08:54:07.624Z,1019.51
2019-02-17T08:55:07.626Z,1019.52
2019-02-17T08:56:07.609Z,1019.52
2019-02-17T08:57:07.574Z,1019.54
2019-02-17T08:58:07.567Z,1019.60
2019-02-17T08:59:07.560Z,1019.58
2019-02-17T09:00:07.561Z,1019.65
2019-02-17T09:01:07.533Z,1019.63
2019-02-17T09:02:07.529Z,1019.67
2019-02-17T09:03:07.510Z,1019.66
2019-02-17T09:04:07.506Z,1019.63
2019-02-17T09:05:07.525Z,1019.64
2019-02-17T09:06:07.478Z,1019.64
2019-02-17T09:07:07.479Z,1019.57
2019-02-17T09:08:07.455Z,1019.57
2019-02-17T09:09:07.459Z,1019.61
2019-02-17T09:10:07.436Z,1019.61
2019-02-17T09:11:07.451Z,1019.59
2019-02-17T09:12:07.411Z,1019.54
2019-02-17T09:13:07.409Z,1019.55
2019-02-17T09:14:07.393Z,1019.58
2019-02-17T09:15:07.422Z,1019.59
2019-02-17T09:16:07.463Z,1019.54
2019-02-17T09:17:07.365Z,1019.50
2019-02-17T09:18:07.344Z,1019.52
2019-02-17T09:19:07.330Z,1019.52
2019-02-17T09:20:08.037Z,1019.49
2019-02-17T09:21:07.327Z,1019.45
2019-02-17T09:22:07.312Z,1019.48
2019-02-17T09:23:07.298Z,1019.47
2019-02-17T09:24:07.277Z,1019.45
2019-02-17T09:25:07.268Z,1019.45
2019-02-17T09:26:07.278Z,1019.46
2019-02-17T09:27:07.238Z,1019.45
2019-02-17T09:28:07.234Z,1019.43
2019-02-17T09:29:07.259Z,1019.42
2019-02-17T09:30:07.214Z,1019.44
2019-02-17T09:31:07.227Z,1019.37
2019-02-17T09:32:16.014Z,1019.42
2019-02-17T09:33:08.176Z,1019.37
2019-02-17T09:34:07.183Z,1019.35
2019-02-17T09:35:07.151Z,1019.36
2019-02-17T09:36:07.138Z,1019.39
2019-02-17T09:37:07.147Z,1019.36
2019-02-17T09:38:07.129Z,1019.32
2019-02-17T09:39:07.106Z,1019.33
2019-02-17T09:40:07.099Z,1019.33
2019-02-17T09:41:07.108Z,1019.35
2019-02-17T09:42:07.089Z,1019.33
2019-02-17T09:43:07.057Z,1019.36
2019-02-17T09:44:07.065Z,1019.34
2019-02-17T09:45:07.045Z,1019.32
2019-02-17T09:46:07.024Z,1019.23
2019-02-17T09:47:07.025Z,1019.19
2019-02-17T09:48:07.012Z,1019.21
2019-02-17T09:49:07.006Z,1019.20
2019-02-17T09:50:06.983Z,1019.25
2019-02-17T09:51:06.965Z,1019.21
2019-02-17T09:52:06.984Z,1019.20
2019-02-17T09:53:06.943Z,1019.21
2019-02-17T09:54:06.933Z,1019.21
2019-02-17T09:55:06.920Z,1019.19
2019-02-17T09:56:06.911Z,1019.15
2019-02-17T09:57:06.927Z,1019.21
2019-02-17T09:58:06.898Z,1019.16
2019-02-17T09:59:06.876Z,1019.16
2019-02-17T10:00:06.859Z,1019.21
2019-02-17T10:01:06.939Z,1019.19
2019-02-17T10:02:06.849Z,1019.18
2019-02-17T10:03:06.841Z,1019.18
2019-02-17T10:04:06.817Z,1019.21
2019-02-17T10:05:06.831Z,1019.20
2019-02-17T10:06:06.817Z,1019.21
2019-02-17T10:07:06.785Z,1019.21
2019-02-17T10:08:06.793Z,1019.19
2019-02-17T10:09:06.761Z,1019.21
2019-02-17T10:10:06.751Z,1019.24
2019-02-17T10:11:06.736Z,1019.25
2019-02-17T10:12:06.724Z,1019.24
2019-02-17T10:13:06.745Z,1019.22
2019-02-17T10:14:06.706Z,1019.24
2019-02-17T10:15:06.694Z,1019.24
2019-02-17T10:16:06.678Z,1019.27
2019-02-17T10:17:06.668Z,1019.26
2019-02-17T10:18:06.678Z,1019.24
2019-02-17T10:19:06.659Z,1019.19
2019-02-17T10:20:06.632Z,1019.20
2019-02-17T10:21:06.629Z,1019.17
2019-02-17T10:22:06.649Z,1019.16
2019-02-17T10:23:06.619Z,1019.12
2019-02-17T10:24:06.591Z,1019.17
2019-02-17T10:25:06.578Z,1019.17
2019-02-17T10:26:06.562Z,1019.18
2019-02-17T10:27:06.552Z,1019.17
2019-02-17T10:28:06.574Z,1019.20
2019-02-17T10:29:06.537Z,1019.20
2019-02-17T10:30:06.526Z,1019.19
2019-02-17T10:31:06.809Z,1019.20
2019-02-17T10:32:06.506Z,1019.10
2019-02-17T10:33:06.497Z,1019.14
2019-02-17T10:34:06.551Z,1019.09
2019-02-17T10:35:06.461Z,1019.07
2019-02-17T10:36:06.536Z,1019.09
2019-02-17T10:37:06.611Z,1019.10
2019-02-17T10:38:06.434Z,1019.07
2019-02-17T10:39:06.439Z,1019.04
2019-02-17T10:40:06.409Z,1019.04
2019-02-17T10:41:06.402Z,1019.06
2019-02-17T10:42:06.393Z,1019.08
2019-02-17T10:43:06.378Z,1019.04
2019-02-17T10:44:06.387Z,1019.07
2019-02-17T10:45:06.361Z,1019.01
2019-02-17T10:46:06.391Z,1019.01
2019-02-17T10:47:06.333Z,1019.02
2019-02-17T10:48:06.326Z,1018.97
2019-02-17T10:49:06.335Z,1018.96
2019-02-17T10:50:06.304Z,1018.89
2019-02-17T10:51:06.293Z,1018.90
2019-02-17T10:52:06.282Z,1018.87
2019-02-17T10:53:06.266Z,1018.88
2019-02-17T10:54:06.255Z,1018.91
2019-02-17T10:55:06.268Z,1018.86
2019-02-17T10:56:06.236Z,1018.85
2019-02-17T10:57:06.256Z,1018.85
2019-02-17T10:58:06.220Z,1018.82
2019-02-17T10:59:06.276Z,1018.87
2019-02-17T11:00:06.202Z,1018.80
2019-02-17T11:01:06.188Z,1018.79
2019-02-17T11:02:06.159Z,1018.79
2019-02-17T11:03:06.149Z,1018.75
2019-02-17T11:04:06.141Z,1018.74
2019-02-17T11:05:06.160Z,1018.76
2019-02-17T11:06:06.118Z,1018.70
2019-02-17T11:07:06.115Z,1018.74
2019-02-17T11:08:06.124Z,1018.70
2019-02-17T11:09:06.094Z,1018.65
2019-02-17T11:10:06.102Z,1018.64
2019-02-17T11:11:06.086Z,1018.67
2019-02-17T11:12:06.055Z,1018.62
2019-02-17T11:13:06.127Z,1018.62
2019-02-17T11:14:06.039Z,1018.61
2019-02-17T11:15:06.045Z,1018.60
2019-02-17T11:16:06.010Z,1018.65
2019-02-17T11:17:05.994Z,1018.61
2019-02-17T11:18:05.987Z,1018.58
2019-02-17T11:19:05.977Z,1018.54
2019-02-17T11:20:05.974Z,1018.56
2019-02-17T11:21:05.969Z,1018.53
2019-02-17T11:22:05.968Z,1018.57
2019-02-17T11:23:05.927Z,1018.51
2019-02-17T11:24:05.919Z,1018.50
2019-02-17T11:25:05.930Z,1018.47
2019-02-17T11:26:05.905Z,1018.46
2019-02-17T11:27:05.881Z,1018.44
2019-02-17T11:28:05.880Z,1018.45
2019-02-17T11:29:05.862Z,1018.43
2019-02-17T11:30:05.849Z,1018.41
2019-02-17T11:31:05.861Z,1018.47
2019-02-17T11:32:05.830Z,1018.42
2019-02-17T11:33:05.847Z,1018.44
2019-02-17T11:34:05.814Z,1018.41
2019-02-17T11:35:05.801Z,1018.33
2019-02-17T11:36:05.806Z,1018.43
2019-02-17T11:37:05.768Z,1018.37
2019-02-17T11:38:05.846Z,1018.43
2019-02-17T11:39:05.750Z,1018.40
2019-02-17T11:40:05.738Z,1018.40
2019-02-17T11:41:05.925Z,1018.36
2019-02-17T11:42:05.711Z,1018.37
2019-02-17T11:43:05.715Z,1018.40
2019-02-17T11:44:05.700Z,1018.36
2019-02-17T11:45:05.677Z,1018.37
2019-02-17T11:46:05.696Z,1018.40
2019-02-17T11:47:07.315Z,1018.35
2019-02-17T11:48:05.635Z,1018.36
2019-02-17T11:49:05.682Z,1018.36
2019-02-17T11:50:05.620Z,1018.34
2019-02-17T11:51:05.636Z,1018.39
2019-02-17T11:52:05.594Z,1018.38
2019-02-17T11:53:05.586Z,1018.36
2019-02-17T11:54:05.574Z,1018.39
2019-02-17T11:55:05.560Z,1018.34
2019-02-17T11:56:05.544Z,1018.34
2019-02-17T11:57:05.564Z,1018.32
2019-02-17T11:58:05.527Z,1018.29
2019-02-17T11:59:05.513Z,1018.27
2019-02-17T12:00:05.538Z,1018.27
2019-02-17T12:01:05.588Z,1018.24
2019-02-17T12:02:05.499Z,1018.25
2019-02-17T12:03:08.159Z,1018.22
2019-02-17T12:04:05.453Z,1018.25
2019-02-17T12:05:05.449Z,1018.15